New Johannesburg, Wisconsin
Current Conditions -  °F | °C
As of 4:55 PM on Saturday 20 Dec 2014 (Local Time) from KRNH Reporting Station
Haze Haze  
Wind Chill: -4°   Ceiling: 1500
Heat Index:   Visibility: 5mi
Dew Point: -1°   Wind: 7mph
Humidity: 95%   Direction: 150°SSE
Pressure: 30.13"   Gusts: NA
Location:  45.1804°N, 92.551°W
Report Text: KRNH 202255Z AUTO 15006KT 5SM BR OVC015 00/M01 A3013 RMK AO2 T10051012
Loading
Personal Weather Stations






























Interactive Weather Map New forecast layout! Learn more

10-Day Weather Forecast

Advertisements
Track Severe Weather on mobile